Time;durP1;ratioP1;P1;durP2;ratioP2;P2;SDS_P1;SDS_P2;PMS_P1;PMS_P2;Temp;Humidity;BMP_temperature;BMP_pressure;BME280_temperature;BME280_humidity;BME280_pressure;Samples;Min_cycle;Max_cycle;Signal;HPM_P1;HPM_P2
2024/02/18 00:00:33;;;;;;;29.08;12.57;;;;;;;4.46;71.23;94935.09;5005144;28;20034;-69
2024/02/18 00:02:59;;;;;;;23.48;12.18;;;;;;;4.45;71.04;94936.13;5004998;28;20041;-69
2024/02/18 00:05:25;;;;;;;22.83;12.20;;;;;;;4.44;71.03;94942.47;5004799;28;20026;-69
2024/02/18 00:07:50;;;;;;;24.85;12.00;;;;;;;4.39;71.39;94940.56;5004767;28;20056;-70
2024/02/18 00:10:16;;;;;;;29.42;12.32;;;;;;;4.41;71.25;94940.31;5004807;28;20119;-69
2024/02/18 00:12:41;;;;;;;21.77;11.65;;;;;;;4.41;71.31;94940.31;5004507;28;20249;-70
2024/02/18 00:15:07;;;;;;;29.13;12.63;;;;;;;4.43;71.11;94944.28;5004802;28;20022;-69
2024/02/18 00:17:33;;;;;;;23.48;12.45;;;;;;;4.32;71.05;94936.53;5004601;28;20022;-69
2024/02/18 00:19:58;;;;;;;22.52;11.85;;;;;;;4.38;71.08;94943.47;5004727;28;20029;-69
2024/02/18 00:22:24;;;;;;;24.58;12.65;;;;;;;4.34;71.39;94939.72;5004454;28;20221;-69
2024/02/18 00:24:52;;;;;;;25.90;12.13;;;;;;;4.37;71.33;94936.56;5004356;28;20026;-69
2024/02/18 00:27:17;;;;;;;23.85;11.93;;;;;;;4.33;71.50;94938.09;5004293;28;20325;-69
2024/02/18 00:29:43;;;;;;;29.23;12.07;;;;;;;4.18;71.86;94933.47;5004454;28;20029;-69
2024/02/18 00:32:09;;;;;;;29.42;14.73;;;;;;;4.04;73.20;94934.88;5004261;28;20057;-69
2024/02/18 00:34:34;;;;;;;33.70;13.93;;;;;;;4.13;73.14;94928.94;5003361;28;20057;-69
2024/02/18 00:37:00;;;;;;;28.55;13.55;;;;;;;4.14;72.70;94929.72;5004388;28;20018;-70
2024/02/18 00:39:25;;;;;;;26.25;13.75;;;;;;;4.17;72.58;94929.22;5004142;28;20018;-70
2024/02/18 00:41:51;;;;;;;24.90;13.32;;;;;;;4.20;72.50;94929.53;5004003;28;20038;-69
2024/02/18 00:44:17;;;;;;;30.33;14.13;;;;;;;4.15;72.54;94934.75;5003990;28;20030;-70
2024/02/18 00:46:42;;;;;;;26.38;13.57;;;;;;;4.17;72.61;94930.03;5004102;28;20354;-69
2024/02/18 00:49:08;;;;;;;31.30;14.27;;;;;;;4.18;72.49;94928.97;5004028;28;20129;-69
2024/02/18 00:51:33;;;;;;;29.27;14.48;;;;;;;4.05;72.89;94929.34;5004061;28;20034;-69
2024/02/18 00:53:59;;;;;;;29.05;14.57;;;;;;;4.10;72.90;94939.97;5003909;28;20046;-69
2024/02/18 00:56:25;;;;;;;25.98;14.73;;;;;;;4.12;72.85;94940.50;5003683;28;20316;-69
2024/02/18 00:58:55;;;;;;;37.33;14.88;;;;;;;4.14;73.17;94935.78;5003967;28;20089;-69
2024/02/18 01:01:20;;;;;;;32.03;15.00;;;;;;;4.13;73.42;94933.38;5003804;28;20321;-69
2024/02/18 01:03:45;;;;;;;31.65;15.98;;;;;;;4.11;73.76;94938.94;5003585;28;20089;-69
2024/02/18 01:06:14;;;;;;;29.70;15.18;;;;;;;4.12;73.86;94932.59;5003626;28;20026;-70
2024/02/18 01:08:40;;;;;;;32.33;15.13;;;;;;;4.12;74.25;94937.09;5003637;28;20253;-69
2024/02/18 01:11:05;;;;;;;31.30;15.55;;;;;;;4.12;74.35;94926.53;5003441;28;20046;-69
2024/02/18 01:13:31;;;;;;;40.25;18.42;;;;;;;4.14;74.72;94927.88;5004005;28;20022;-69
2024/02/18 01:15:56;;;;;;;35.55;15.70;;;;;;;4.15;74.66;94926.84;5003705;28;20018;-69
2024/02/18 01:18:22;;;;;;;32.55;17.52;;;;;;;4.13;74.78;94923.66;5003632;28;20037;-69
2024/02/18 01:20:47;;;;;;;37.13;17.70;;;;;;;4.04;74.72;94922.47;5003486;28;20033;-69
2024/02/18 01:23:12;;;;;;;36.10;17.60;;;;;;;4.08;74.75;94915.66;5003449;28;20114;-69
2024/02/18 01:25:38;;;;;;;38.90;16.35;;;;;;;4.01;74.73;94915.06;5003377;28;20040;-69
2024/02/18 01:28:04;;;;;;;33.83;16.52;;;;;;;4.01;74.66;94920.34;5003159;28;20046;-69
2024/02/18 01:30:29;;;;;;;31.95;14.98;;;;;;;4.05;74.33;94910.06;5003627;28;20033;-69
2024/02/18 01:32:55;;;;;;;30.70;15.35;;;;;;;4.04;74.30;94904.00;5003312;28;20241;-69
2024/02/18 01:35:21;;;;;;;31.30;15.73;;;;;;;4.02;74.04;94900.81;5003256;28;20034;-69
2024/02/18 01:37:47;;;;;;;27.70;15.05;;;;;;;3.96;73.89;94907.88;5003146;28;20040;-69
2024/02/18 01:40:13;;;;;;;29.25;14.55;;;;;;;3.97;73.82;94903.41;5003006;28;20058;-69
2024/02/18 01:42:39;;;;;;;35.03;15.40;;;;;;;3.95;73.78;94910.78;5002970;28;20033;-69
2024/02/18 01:45:11;;;;;;;27.98;15.65;;;;;;;3.95;73.67;94910.78;5003191;28;20046;-69
2024/02/18 01:47:40;;;;;;;36.05;15.93;;;;;;;3.88;73.60;94915.41;5009463;28;20233;-69
2024/02/18 01:50:08;;;;;;;31.27;16.13;;;;;;;3.80;74.01;94906.09;5009652;28;20030;-69
2024/02/18 01:52:34;;;;;;;34.30;15.40;;;;;;;3.76;74.04;94905.75;5009748;28;20032;-69
2024/02/18 01:55:00;;;;;;;30.15;14.05;;;;;;;3.75;73.79;94909.47;5009568;28;20046;-69
2024/02/18 01:57:29;;;;;;;29.48;14.02;;;;;;;3.69;73.80;94910.44;5009575;28;20038;-69
2024/02/18 01:59:59;;;;;;;39.22;16.25;;;;;;;3.66;73.66;94908.28;5009614;28;20034;-69
2024/02/18 02:02:25;;;;;;;24.85;13.40;;;;;;;3.65;73.38;94909.31;5009605;28;20038;-69
2024/02/18 02:04:51;;;;;;;29.25;15.73;;;;;;;3.58;73.54;94917.41;5009456;28;20026;-69
2024/02/18 02:07:18;;;;;;;31.20;15.10;;;;;;;3.53;73.86;94919.97;5009447;28;20033;-69
2024/02/18 02:09:43;;;;;;;40.42;15.52;;;;;;;3.50;73.84;94917.84;5009484;28;20037;-69
2024/02/18 02:12:09;;;;;;;33.78;16.13;;;;;;;3.49;74.00;94915.44;5009321;28;20089;-69
2024/02/18 02:14:35;;;;;;;37.92;17.02;;;;;;;3.45;73.68;94927.50;5009508;28;20026;-69
2024/02/18 02:17:00;;;;;;;32.05;15.00;;;;;;;3.32;74.37;94921.53;5009641;28;20097;-69
2024/02/18 02:19:26;;;;;;;35.67;16.80;;;;;;;3.31;74.73;94929.66;5009320;28;20030;-69
2024/02/18 02:21:51;;;;;;;30.83;15.02;;;;;;;3.29;75.01;94937.81;5009416;28;20420;-69
2024/02/18 02:24:17;;;;;;;37.78;17.05;;;;;;;3.21;75.18;94932.94;5009390;28;20033;-69
2024/02/18 02:26:44;;;;;;;32.35;15.85;;;;;;;3.17;75.27;94937.09;5009144;28;20028;-69
2024/02/18 02:29:11;;;;;;;34.65;16.33;;;;;;;3.17;75.73;94940.50;5009360;28;20073;-69
2024/02/18 02:31:41;;;;;;;37.08;16.05;;;;;;;3.17;75.12;94945.00;5009460;28;20282;-68
2024/02/18 02:34:07;;;;;;;33.78;16.45;;;;;;;3.15;75.21;94939.16;5009237;28;20068;-69
2024/02/18 02:36:32;;;;;;;33.63;17.27;;;;;;;3.07;75.58;94935.09;5009343;28;20026;-69
2024/02/18 02:38:58;;;;;;;32.88;15.77;;;;;;;3.00;75.95;94943.16;5009301;28;20094;-69
2024/02/18 02:41:24;;;;;;;39.22;16.70;;;;;;;2.76;77.20;94952.22;5009223;28;20045;-69
2024/02/18 02:43:49;;;;;;;34.92;15.98;;;;;;;2.82;77.14;94943.38;5009209;28;20264;-69
2024/02/18 02:46:15;;;;;;;33.40;16.52;;;;;;;2.83;77.01;94950.25;5009088;28;20076;-69
2024/02/18 02:48:40;;;;;;;36.85;15.45;;;;;;;2.83;76.82;94949.44;5009074;28;20033;-69
2024/02/18 02:51:07;;;;;;;32.25;14.52;;;;;;;2.83;74.59;94942.34;5009108;28;20038;-69
2024/02/18 02:53:32;;;;;;;29.65;12.63;;;;;;;2.96;71.05;94934.13;5009022;28;20050;-68
2024/02/18 02:55:59;;;;;;;21.52;10.40;;;;;;;3.28;68.03;94938.84;5009240;28;20026;-69
2024/02/18 02:58:25;;;;;;;17.05;9.15;;;;;;;3.71;64.96;94926.03;5006265;28;20221;-69
2024/02/18 03:00:50;;;;;;;22.27;10.70;;;;;;;4.11;63.75;94946.03;5006148;28;20036;-69
2024/02/18 03:03:16;;;;;;;27.50;11.93;;;;;;;4.12;65.49;94948.44;5005952;28;20026;-69
2024/02/18 03:05:41;;;;;;;25.55;11.07;;;;;;;4.15;63.58;94950.59;5005877;28;20069;-69
2024/02/18 03:08:08;;;;;;;23.17;11.57;;;;;;;4.25;63.05;94949.88;5005643;28;20140;-68
2024/02/18 03:10:37;;;;;;;27.10;12.38;;;;;;;4.40;62.99;94954.56;5005982;28;20026;-68
2024/02/18 03:13:03;;;;;;;22.45;11.25;;;;;;;4.34;63.27;94955.56;5005686;28;20098;-68
2024/02/18 03:15:30;;;;;;;25.05;11.73;;;;;;;4.42;62.33;94947.19;5005785;28;20112;-70
2024/02/18 03:17:58;;;;;;;21.38;9.73;;;;;;;4.66;60.31;94950.38;5005726;28;20022;-68
2024/02/18 03:20:23;;;;;;;19.63;9.30;;;;;;;4.93;59.32;94953.00;5005781;28;20260;-68
2024/02/18 03:22:50;;;;;;;19.65;9.52;;;;;;;5.19;58.62;94950.53;5005606;28;20060;-68
2024/02/18 03:25:16;;;;;;;21.70;10.55;;;;;;;5.41;57.93;94943.34;5005539;28;20026;-69
2024/02/18 03:27:42;;;;;;;21.48;10.57;;;;;;;5.63;57.21;94955.63;5005499;28;20022;-69
2024/02/18 03:30:08;;;;;;;22.25;9.65;;;;;;;5.79;56.32;94956.53;5005698;28;20069;-69
2024/02/18 03:32:36;;;;;;;20.55;9.38;;;;;;;5.87;56.37;94952.63;5005310;28;20018;-69
2024/02/18 03:35:05;;;;;;;19.33;10.05;;;;;;;5.95;55.65;94950.31;5005642;28;20033;-69
2024/02/18 03:37:32;;;;;;;21.88;9.73;;;;;;;6.02;55.22;94952.72;5004314;28;20201;-69
2024/02/18 03:39:57;;;;;;;17.00;9.57;;;;;;;6.11;55.00;94966.28;5005476;28;20026;-69
2024/02/18 03:42:23;;;;;;;22.95;9.60;;;;;;;6.18;54.89;94967.63;5005081;28;20073;-69
2024/02/18 03:44:48;;;;;;;27.55;10.95;;;;;;;6.21;54.36;94974.28;5005192;28;20313;-69
2024/02/18 03:47:14;;;;;;;20.27;9.70;;;;;;;6.23;54.02;94964.22;5005102;28;20018;-69
2024/02/18 03:49:40;;;;;;;18.30;10.73;;;;;;;6.26;54.33;94976.13;5005264;28;20305;-69
2024/02/18 03:52:06;;;;;;;20.70;9.55;;;;;;;6.26;54.57;94968.19;5005135;28;20359;-69
2024/02/18 03:54:31;;;;;;;24.30;10.20;;;;;;;6.26;54.85;94963.69;5005175;28;20356;-69
2024/02/18 03:56:57;;;;;;;23.27;11.30;;;;;;;6.20;55.29;94962.84;5004818;28;20033;-69
2024/02/18 03:59:22;;;;;;;23.95;10.77;;;;;;;6.18;55.02;94967.63;5005010;28;20030;-69
2024/02/18 04:01:48;;;;;;;24.35;11.20;;;;;;;6.22;55.37;94967.91;5004833;28;20029;-69
2024/02/18 04:04:14;;;;;;;23.20;11.20;;;;;;;6.23;55.43;94972.16;5005091;28;20099;-69
2024/02/18 04:06:40;;;;;;;19.90;10.50;;;;;;;6.22;55.59;94973.19;5004712;28;20026;-69
2024/02/18 04:09:06;;;;;;;25.50;11.20;;;;;;;6.20;55.57;94976.09;5004018;28;20065;-69
2024/02/18 04:11:31;;;;;;;21.45;10.73;;;;;;;6.09;56.02;94974.47;5004503;28;20023;-69
2024/02/18 04:13:57;;;;;;;21.95;10.68;;;;;;;6.14;55.89;94977.13;5004551;28;20086;-69
2024/02/18 04:16:23;;;;;;;19.73;10.43;;;;;;;6.16;55.82;94982.97;5004678;28;20232;-69
2024/02/18 04:18:48;;;;;;;19.20;10.20;;;;;;;6.13;55.96;94977.41;5004597;28;20023;-69
2024/02/18 04:21:13;;;;;;;21.00;10.15;;;;;;;6.09;56.15;94979.75;5004348;28;20022;-69
2024/02/18 04:23:39;;;;;;;27.05;11.15;;;;;;;6.16;56.17;94985.59;5004435;28;20022;-69
2024/02/18 04:26:04;;;;;;;21.25;11.45;;;;;;;6.18;56.33;94980.06;5004496;28;20257;-69
2024/02/18 04:28:30;;;;;;;23.17;11.00;;;;;;;6.15;56.71;94972.66;5004692;28;20015;-69
2024/02/18 04:30:55;;;;;;;25.27;12.52;;;;;;;6.10;57.01;94977.91;5004440;28;20206;-69
2024/02/18 04:33:20;;;;;;;23.52;11.55;;;;;;;6.10;57.30;94983.19;5004373;28;20018;-69
2024/02/18 04:35:46;;;;;;;21.63;11.57;;;;;;;6.12;57.17;94973.94;5004189;28;20022;-69
2024/02/18 04:38:11;;;;;;;21.48;10.73;;;;;;;6.09;57.28;94973.69;5004351;28;20027;-69
2024/02/18 04:40:37;;;;;;;23.95;10.38;;;;;;;6.08;57.27;94978.16;5004380;28;20033;-69
2024/02/18 04:43:02;;;;;;;27.10;12.45;;;;;;;6.07;57.37;94966.00;5004208;28;20030;-69
2024/02/18 04:45:28;;;;;;;22.73;11.80;;;;;;;6.08;57.29;94967.56;5004541;28;20313;-69
2024/02/18 04:47:53;;;;;;;24.90;12.07;;;;;;;6.01;57.44;94964.38;5004061;28;20034;-69
2024/02/18 04:50:18;;;;;;;22.95;12.60;;;;;;;5.99;57.29;94969.91;5003949;28;20048;-69
2024/02/18 04:52:44;;;;;;;19.90;11.00;;;;;;;6.00;57.35;94955.66;5004115;28;20025;-69
2024/02/18 04:55:09;;;;;;;21.05;11.05;;;;;;;6.02;57.30;94958.00;5003910;28;20046;-69
2024/02/18 04:57:35;;;;;;;25.17;11.85;;;;;;;6.07;57.48;94965.19;5004033;28;20026;-69
2024/02/18 05:00:00;;;;;;;26.67;11.02;;;;;;;6.02;57.20;94958.81;5004075;28;20022;-69
2024/02/18 05:02:25;;;;;;;24.63;11.98;;;;;;;5.94;57.17;94951.34;5003423;28;20132;-69
2024/02/18 05:04:51;;;;;;;22.58;10.55;;;;;;;5.98;56.93;94956.94;5002565;28;20041;-69
2024/02/18 05:07:16;;;;;;;18.40;10.15;;;;;;;5.97;56.77;94955.34;5003815;28;20022;-69
2024/02/18 05:09:42;;;;;;;22.58;10.88;;;;;;;6.03;56.49;94954.31;5003682;28;20094;-69
2024/02/18 05:12:07;;;;;;;19.60;10.23;;;;;;;6.06;56.51;94959.09;5003496;28;20062;-69
2024/02/18 05:14:33;;;;;;;20.45;10.85;;;;;;;6.06;56.87;94969.69;5003538;28;20195;-68
2024/02/18 05:16:59;;;;;;;22.30;11.18;;;;;;;6.03;56.82;94957.75;5003689;28;20034;-68
2024/02/18 05:19:25;;;;;;;22.17;10.40;;;;;;;6.07;56.81;94970.50;5003406;28;20022;-68
2024/02/18 05:21:51;;;;;;;21.80;10.15;;;;;;;6.11;56.81;94976.88;5003261;28;20197;-69
2024/02/18 05:24:17;;;;;;;20.70;9.90;;;;;;;6.17;56.51;94971.34;5003347;28;20033;-68
2024/02/18 05:26:43;;;;;;;22.27;11.63;;;;;;;6.16;56.54;94969.72;5003647;28;20098;-69
2024/02/18 05:29:09;;;;;;;25.00;9.95;;;;;;;6.10;56.87;94975.25;5003478;28;20038;-69
2024/02/18 05:31:35;;;;;;;21.95;10.82;;;;;;;6.11;56.55;94982.16;5003425;28;20033;-69
2024/02/18 05:34:01;;;;;;;18.25;9.27;;;;;;;6.18;56.19;94978.22;5003372;28;20029;-70
2024/02/18 05:36:26;;;;;;;20.52;11.25;;;;;;;6.21;56.19;94977.72;5003439;28;20057;-69
2024/02/18 05:38:52;;;;;;;20.30;9.23;;;;;;;6.26;56.31;94984.06;5003329;28;20030;-70
2024/02/18 05:41:18;;;;;;;20.30;9.77;;;;;;;6.25;56.30;94993.06;5003211;28;20034;-70
2024/02/18 05:43:43;;;;;;;20.27;9.77;;;;;;;6.25;56.09;94982.47;5003261;28;20026;-70
2024/02/18 05:46:10;;;;;;;23.77;10.50;;;;;;;6.27;56.36;94988.31;5003182;28;20028;-69
2024/02/18 05:48:39;;;;;;;19.77;9.88;;;;;;;6.26;56.35;94984.88;5003166;28;20024;-69
2024/02/18 05:51:05;;;;;;;17.38;9.27;;;;;;;6.32;56.44;94981.19;5003165;28;20018;-69
2024/02/18 05:53:30;;;;;;;15.18;9.18;;;;;;;6.31;56.61;94984.09;5003393;28;20098;-70
2024/02/18 05:55:56;;;;;;;19.25;9.43;;;;;;;6.41;56.60;94994.72;5003095;28;20225;-69
2024/02/18 05:58:23;;;;;;;18.70;9.25;;;;;;;6.47;56.71;95008.78;5003095;28;20029;-69
2024/02/18 06:00:48;;;;;;;18.17;9.23;;;;;;;6.53;56.36;95005.91;5003111;28;20269;-70
2024/02/18 06:03:14;;;;;;;16.90;8.68;;;;;;;6.57;55.89;95022.91;5003041;28;20034;-70
2024/02/18 06:05:39;;;;;;;18.38;8.77;;;;;;;6.59;56.17;95002.25;5003023;28;20236;-70
2024/02/18 06:08:05;;;;;;;19.55;9.50;;;;;;;6.67;56.00;95006.22;5003210;28;20100;-70
2024/02/18 06:10:30;;;;;;;24.33;9.65;;;;;;;6.70;56.09;95002.28;5003165;28;20018;-70
2024/02/18 06:12:56;;;;;;;20.13;9.25;;;;;;;6.75;56.46;95012.88;5003016;28;20014;-70
2024/02/18 06:15:21;;;;;;;24.13;10.55;;;;;;;6.77;55.95;95019.50;5003085;28;20067;-70
2024/02/18 06:17:47;;;;;;;18.58;11.25;;;;;;;6.86;55.60;95034.88;5002992;28;20018;-70
2024/02/18 06:20:13;;;;;;;17.38;9.63;;;;;;;6.79;55.97;95029.84;5003095;28;20036;-70
2024/02/18 06:22:38;;;;;;;20.52;9.45;;;;;;;6.89;56.12;95029.88;5002595;28;20052;-70
2024/02/18 06:25:05;;;;;;;21.35;9.95;;;;;;;7.01;56.04;95033.09;5003024;28;20026;-70
2024/02/18 06:27:30;;;;;;;17.88;10.13;;;;;;;7.01;55.67;95034.94;5003097;28;20019;-70
2024/02/18 06:29:56;;;;;;;19.20;10.50;;;;;;;7.12;55.22;95051.66;5002710;28;20129;-70
2024/02/18 06:32:21;;;;;;;25.33;10.68;;;;;;;7.16;55.16;95028.88;5002896;28;20194;-70
2024/02/18 06:34:47;;;;;;;23.05;11.50;;;;;;;7.13;54.86;95042.66;5006496;28;20022;-70
2024/02/18 06:37:12;;;;;;;24.35;11.05;;;;;;;7.14;54.70;95041.59;5006388;28;20018;-70
2024/02/18 06:39:38;;;;;;;30.75;11.65;;;;;;;7.11;54.91;95040.28;5006290;28;20026;-70
2024/02/18 06:42:04;;;;;;;29.65;12.13;;;;;;;7.03;55.00;95046.88;5006429;28;20029;-70
2024/02/18 06:44:29;;;;;;;23.80;12.68;;;;;;;7.00;55.19;95063.31;5006439;28;20033;-70
2024/02/18 06:46:54;;;;;;;27.42;13.40;;;;;;;6.99;55.93;95043.16;5006355;28;20046;-70
2024/02/18 06:49:20;;;;;;;32.25;13.13;;;;;;;7.00;55.70;95055.38;5006289;28;20054;-70
2024/02/18 06:51:45;;;;;;;29.65;14.13;;;;;;;6.90;56.14;95062.47;5006034;28;20029;-70
2024/02/18 06:54:11;;;;;;;28.45;14.15;;;;;;;6.86;57.61;95053.44;5005975;28;20045;-70
2024/02/18 06:56:36;;;;;;;28.75;13.95;;;;;;;6.76;59.25;95057.66;5006192;28;20049;-70
2024/02/18 06:59:01;;;;;;;30.77;14.93;;;;;;;6.80;60.19;95079.94;5006130;28;20030;-70
2024/02/18 07:01:27;;;;;;;43.20;17.40;;;;;;;6.62;63.60;95052.03;5006066;28;20106;-70
2024/02/18 07:03:52;;;;;;;35.10;17.17;;;;;;;6.46;65.56;95057.53;5005965;28;20065;-70
2024/02/18 07:06:18;;;;;;;41.88;19.77;;;;;;;6.49;66.31;95055.13;5005896;28;20069;-70
2024/02/18 07:08:46;;;;;;;40.20;20.30;;;;;;;6.27;68.23;95049.19;5006010;28;20038;-70
2024/02/18 07:11:13;;;;;;;40.65;19.63;;;;;;;6.30;68.71;95064.59;5005811;28;20093;-70
2024/02/18 07:13:39;;;;;;;42.67;18.60;;;;;;;6.20;69.07;95066.09;5005919;28;20229;-70
2024/02/18 07:16:04;;;;;;;36.72;19.05;;;;;;;6.17;69.33;95060.56;5004500;28;20034;-70
2024/02/18 07:18:30;;;;;;;40.55;19.10;;;;;;;6.19;69.98;95064.53;5006027;28;20029;-70
2024/02/18 07:20:55;;;;;;;37.80;17.83;;;;;;;6.17;69.91;95074.56;5005747;28;20030;-70
2024/02/18 07:23:22;;;;;;;33.35;17.67;;;;;;;6.11;69.66;95074.81;5005668;28;20033;-70
2024/02/18 07:25:47;;;;;;;37.67;17.83;;;;;;;6.12;69.27;95057.84;5005594;28;20313;-70
2024/02/18 07:28:13;;;;;;;42.35;18.85;;;;;;;6.18;69.07;95062.91;5005282;28;20028;-70
2024/02/18 07:30:38;;;;;;;34.45;18.67;;;;;;;6.29;68.66;95073.56;5005604;28;20022;-70
2024/02/18 07:33:04;;;;;;;40.75;19.00;;;;;;;6.37;67.79;95059.84;5005570;28;20041;-70
2024/02/18 07:35:29;;;;;;;46.72;19.80;;;;;;;6.42;67.24;95062.53;5005559;28;20221;-70
2024/02/18 07:37:57;;;;;;;36.30;18.35;;;;;;;6.42;67.07;95058.03;5005492;28;20041;-70
2024/02/18 07:40:23;;;;;;;43.40;18.10;;;;;;;6.34;66.80;95065.66;5005321;28;20268;-70
2024/02/18 07:42:48;;;;;;;41.33;18.30;;;;;;;6.39;66.50;95076.28;5004982;28;20058;-70
2024/02/18 07:45:14;;;;;;;37.28;17.65;;;;;;;6.40;66.44;95069.94;5005094;28;20209;-70
2024/02/18 07:47:39;;;;;;;48.25;20.45;;;;;;;6.42;66.35;95073.13;5005220;28;20018;-70
2024/02/18 07:50:07;;;;;;;38.72;18.10;;;;;;;6.46;66.24;95063.63;5005130;28;20081;-70
2024/02/18 07:52:33;;;;;;;32.10;16.23;;;;;;;6.38;68.18;95077.34;5005126;28;20014;-70
2024/02/18 07:54:58;;;;;;;34.40;15.98;;;;;;;6.38;67.41;95066.75;5005161;28;20061;-70
2024/02/18 07:57:24;;;;;;;34.55;17.50;;;;;;;6.43;67.21;95069.41;5004929;28;20090;-69
2024/02/18 07:59:49;;;;;;;42.65;19.25;;;;;;;6.45;67.56;95061.22;5005096;28;20317;-69
2024/02/18 08:02:14;;;;;;;42.17;19.08;;;;;;;6.50;68.71;95064.69;5004912;28;20424;-69
2024/02/18 08:04:40;;;;;;;34.75;17.27;;;;;;;6.41;70.47;95052.97;5004931;28;20030;-69
2024/02/18 08:07:05;;;;;;;40.03;17.55;;;;;;;6.43;71.27;95050.88;5004822;28;20030;-68
2024/02/18 08:09:31;;;;;;;39.97;17.70;;;;;;;6.43;71.34;95050.88;5004899;28;20026;-68
2024/02/18 08:11:56;;;;;;;31.55;17.35;;;;;;;6.45;71.21;95059.34;5004416;28;20030;-70
2024/02/18 08:14:21;;;;;;;43.35;19.38;;;;;;;6.41;71.23;95069.69;5004596;28;20332;-69
2024/02/18 08:16:47;;;;;;;41.58;18.95;;;;;;;6.35;71.56;95056.66;5004663;28;20093;-69
2024/02/18 08:19:13;;;;;;;34.42;17.23;;;;;;;6.33;71.98;95067.53;5004699;28;20371;-69
2024/02/18 08:21:38;;;;;;;30.83;16.08;;;;;;;6.36;72.06;95059.06;5004516;28;20026;-69
2024/02/18 08:24:04;;;;;;;41.58;18.48;;;;;;;6.39;71.63;95063.03;5004466;28;20030;-71
2024/02/18 08:26:29;;;;;;;33.55;16.25;;;;;;;6.38;71.45;95066.75;5004500;28;20030;-69
2024/02/18 08:28:55;;;;;;;38.45;17.80;;;;;;;6.38;71.64;95067.53;5004554;28;20093;-69
2024/02/18 08:31:21;;;;;;;34.60;17.13;;;;;;;6.37;71.75;95065.16;5004258;28;20026;-69
2024/02/18 08:33:48;;;;;;;32.17;16.15;;;;;;;6.38;71.92;95090.59;5004476;28;20034;-69
2024/02/18 08:36:14;;;;;;;35.20;17.85;;;;;;;6.22;73.24;95085.19;5002982;28;20337;-69
2024/02/18 08:38:40;;;;;;;31.77;16.17;;;;;;;6.19;73.26;95080.41;5004327;28;20030;-70
2024/02/18 08:41:06;;;;;;;38.35;18.45;;;;;;;6.15;73.36;95075.91;5004102;28;20101;-69
2024/02/18 08:43:35;;;;;;;34.75;16.52;;;;;;;6.19;73.78;95085.72;5004364;28;20064;-69
2024/02/18 08:46:01;;;;;;;41.92;18.75;;;;;;;6.11;74.04;95091.47;5004317;28;20224;-69
2024/02/18 08:48:26;;;;;;;41.25;18.15;;;;;;;6.08;74.49;95084.03;5004079;28;20034;-70
2024/02/18 08:50:51;;;;;;;37.38;17.67;;;;;;;6.20;74.00;95076.69;5004053;28;20261;-70
2024/02/18 08:53:17;;;;;;;35.78;17.08;;;;;;;6.21;73.02;95080.97;5004031;28;20054;-70
2024/02/18 08:55:42;;;;;;;35.47;17.25;;;;;;;6.25;73.20;95098.97;5003194;28;20030;-70
2024/02/18 08:58:08;;;;;;;37.20;17.73;;;;;;;6.28;73.27;95085.22;5004079;28;20034;-70
2024/02/18 09:00:33;;;;;;;35.33;16.15;;;;;;;6.31;73.96;95087.34;5004017;28;20118;-69
2024/02/18 09:03:00;;;;;;;36.33;17.23;;;;;;;6.30;74.29;95091.06;5003836;28;20014;-70
2024/02/18 09:05:28;;;;;;;41.80;17.58;;;;;;;6.26;73.54;95080.19;5004021;28;20018;-70
2024/02/18 09:07:54;;;;;;;33.75;15.18;;;;;;;6.18;74.86;95094.69;5003931;28;20018;-69
2024/02/18 09:10:19;;;;;;;28.60;12.85;;;;;;;6.22;74.57;95109.00;5003628;28;20097;-69
2024/02/18 09:12:45;;;;;;;39.20;18.25;;;;;;;6.20;74.66;95097.09;5003694;28;20120;-70
2024/02/18 09:15:11;;;;;;;45.92;18.70;;;;;;;6.22;74.85;95110.88;5003754;28;20046;-70
2024/02/18 09:17:37;;;;;;;35.72;17.65;;;;;;;6.19;75.71;95095.50;5003626;28;20379;-70
2024/02/18 09:20:03;;;;;;;37.88;18.70;;;;;;;6.30;75.85;95107.75;5003891;28;20026;-70
2024/02/18 09:22:29;;;;;;;40.30;19.27;;;;;;;6.23;76.38;95107.19;5003724;28;20041;-70
2024/02/18 09:24:55;;;;;;;47.55;19.98;;;;;;;6.09;77.86;95100.72;5002285;28;20034;-70
2024/02/18 09:27:20;;;;;;;40.28;20.10;;;;;;;6.03;78.58;95086.66;5003647;28;20077;-70
2024/02/18 09:29:47;;;;;;;43.00;21.05;;;;;;;6.10;78.24;95100.47;5003593;28;20053;-70
2024/02/18 09:32:12;;;;;;;45.42;20.25;;;;;;;6.13;78.57;95105.25;5003372;28;20093;-70
2024/02/18 09:34:38;;;;;;;40.50;19.65;;;;;;;6.09;78.49;95100.72;5003356;28;20026;-70
2024/02/18 09:37:03;;;;;;;44.97;21.98;;;;;;;6.10;78.81;95100.47;5003478;28;20041;-70
2024/02/18 09:39:29;;;;;;;43.40;20.75;;;;;;;6.09;78.64;95098.88;5003654;28;20221;-70
2024/02/18 09:41:58;;;;;;;35.13;19.52;;;;;;;6.16;78.37;95106.59;5003546;28;20030;-70
2024/02/18 09:44:26;;;;;;;37.72;19.05;;;;;;;6.16;77.36;95101.28;5003405;28;20093;-71
2024/02/18 09:46:53;;;;;;;38.40;18.33;;;;;;;6.18;77.44;95099.97;5003243;28;20037;-70
2024/02/18 09:49:20;;;;;;;38.13;17.98;;;;;;;6.25;76.10;95101.63;5003288;28;20022;-70
2024/02/18 09:51:52;;;;;;;41.25;19.65;;;;;;;6.31;76.37;95098.75;5003320;28;20089;-70
2024/02/18 09:54:19;;;;;;;37.22;18.17;;;;;;;6.34;76.12;95100.88;5003153;28;20042;-70
2024/02/18 09:56:45;;;;;;;37.78;18.65;;;;;;;6.42;76.23;95104.91;5003302;28;20026;-70
2024/02/18 09:59:11;;;;;;;35.58;18.90;;;;;;;6.39;76.52;95097.47;5003180;28;20049;-70
2024/02/18 10:01:41;;;;;;;35.03;18.65;;;;;;;6.47;76.12;95078.44;5003080;28;20034;-71
2024/02/18 10:04:07;;;;;;;37.30;18.27;;;;;;;6.46;75.85;95097.25;5003282;28;20100;-71
2024/02/18 10:06:32;;;;;;;35.28;17.10;;;;;;;6.49;76.45;95088.78;5003370;28;20023;-68
2024/02/18 10:08:59;;;;;;;45.65;19.40;;;;;;;6.48;75.91;95082.69;5007088;28;20277;-69
2024/02/18 10:11:25;;;;;;;43.22;18.48;;;;;;;6.54;75.54;95076.38;5007006;28;20045;-69
2024/02/18 10:13:56;;;;;;;29.33;15.50;;;;;;;6.55;75.26;95079.81;5007051;28;20388;-69
2024/02/18 10:16:22;;;;;;;33.30;17.58;;;;;;;6.57;74.59;95073.22;5007040;28;20033;-69
2024/02/18 10:18:47;;;;;;;28.45;15.55;;;;;;;6.61;74.54;95066.34;5006996;28;20026;-70
2024/02/18 10:21:14;;;;;;;35.83;16.80;;;;;;;6.67;74.29;95058.41;5006824;28;20034;-69
2024/02/18 10:23:41;;;;;;;26.38;14.50;;;;;;;6.76;73.55;95047.06;5006715;28;20030;-69
2024/02/18 10:26:07;;;;;;;30.33;15.60;;;;;;;6.91;73.73;95056.91;5005849;28;20120;-68
2024/02/18 10:28:36;;;;;;;33.20;16.02;;;;;;;7.03;72.18;95046.88;5006736;28;20027;-69
2024/02/18 10:31:04;;;;;;;33.08;16.48;;;;;;;7.13;71.73;95055.94;5006630;28;20030;-70
2024/02/18 10:33:31;;;;;;;34.70;17.00;;;;;;;7.16;71.79;95034.19;5006694;28;20026;-69
2024/02/18 10:36:03;;;;;;;44.75;21.20;;;;;;;7.20;73.91;95035.25;5006577;28;20048;-69
2024/02/18 10:38:30;;;;;;;;;;;;;;;7.31;74.35;95036.88;5007083;28;20030;-69
2024/02/18 10:41:07;;;;;;;42.65;20.63;;;;;;;7.29;74.36;95033.69;5006536;28;20108;-69
2024/02/18 10:43:43;;;;;;;46.70;21.77;;;;;;;7.28;74.04;95024.13;5006369;28;20225;-69
2024/02/18 10:46:09;;;;;;;46.22;22.05;;;;;;;7.34;74.10;95020.41;5006391;28;20105;-69
2024/02/18 10:48:37;;;;;;;51.55;23.17;;;;;;;7.48;73.92;95022.56;5005196;28;20046;-70
2024/02/18 10:51:06;;;;;;;53.90;24.70;;;;;;;7.59;73.66;95016.19;5006137;28;20320;-69
2024/02/18 10:53:48;;;;;;;49.03;20.88;;;;;;;7.69;72.54;95018.84;5006194;28;20053;-69
2024/02/18 10:56:22;;;;;;;43.50;19.42;;;;;;;7.74;71.46;95010.88;5006324;28;20018;-69
2024/02/18 10:59:10;;;;;;;39.08;18.95;;;;;;;7.80;70.35;95009.03;5006157;28;20085;-69
2024/02/18 11:01:42;;;;;;;29.20;13.65;;;;;;;7.68;67.40;95009.28;5006032;28;20080;-69
2024/02/18 11:04:09;;;;;;;;;;;;;;;7.77;67.55;95014.84;5006477;28;20033;-69
2024/02/18 11:06:39;;;;;;;27.52;14.70;;;;;;;7.83;67.46;95008.47;5006033;28;19913;-69
2024/02/18 11:09:08;;;;;;;30.80;15.25;;;;;;;7.88;68.04;95010.34;5005961;28;20372;-69
2024/02/18 11:11:35;;;;;;;28.65;13.43;;;;;;;7.82;67.52;95031.56;5005833;28;20026;-69
2024/02/18 11:14:02;;;;;;;29.33;14.63;;;;;;;7.66;67.69;95016.72;5005805;28;20097;-69
2024/02/18 11:16:29;;;;;;;27.10;15.07;;;;;;;7.76;67.75;95029.19;5005983;28;20320;-69
2024/02/18 11:18:55;;;;;;;34.90;14.40;;;;;;;7.78;67.32;95030.53;5005214;28;20046;-69
2024/02/18 11:21:21;;;;;;;28.38;15.93;;;;;;;7.76;67.95;95023.91;5005637;28;20064;-69